Time;durP1;ratioP1;P1;durP2;ratioP2;P2;SDS_P1;SDS_P2;PMS_P1;PMS_P2;Temp;Humidity;BMP_temperature;BMP_pressure;BME280_temperature;BME280_humidity;BME280_pressure;Samples;Min_cycle;Max_cycle;Signal;HPM_P1;HPM_P2
2022/10/04 00:01:26;;;;;;;8.55;6.72;;;;;;;10.10;81.84;99449.34;4999172;28;103847;-70
2022/10/04 00:04:11;;;;;;;6.80;6.10;;;;;;;10.08;81.84;99461.75;4999425;28;103724;-70
2022/10/04 00:06:47;;;;;;;8.55;7.53;;;;;;;9.42;83.17;99462.03;4997756;28;103961;-70
2022/10/04 00:09:22;;;;;;;9.90;7.65;;;;;;;8.79;87.95;99454.97;4995784;28;106137;-71
2022/10/04 00:11:54;;;;;;;8.85;7.95;;;;;;;8.96;87.58;99447.00;4998040;28;103682;-71
2022/10/04 00:14:25;;;;;;;7.97;7.07;;;;;;;9.40;87.53;99453.38;4996672;28;102749;-70
2022/10/04 00:16:54;;;;;;;5.70;5.20;;;;;;;9.62;85.53;99451.22;4998926;28;103291;-71
2022/10/04 00:19:42;;;;;;;5.23;4.73;;;;;;;9.80;84.53;99450.16;4997055;28;103699;-70
2022/10/04 00:22:21;;;;;;;5.03;4.53;;;;;;;9.94;83.11;99449.34;4999506;28;102722;-71
2022/10/04 00:25:33;;;;;;;5.38;4.90;;;;;;;9.99;82.17;99449.09;4998773;28;104184;-70
2022/10/04 00:28:29;;;;;;;6.57;5.90;;;;;;;9.96;80.70;99444.00;4998203;28;103976;-70
2022/10/04 00:31:12;;;;;;;6.38;5.78;;;;;;;9.88;80.32;99455.84;4996994;28;104265;-70
2022/10/04 00:33:42;;;;;;;7.13;6.32;;;;;;;9.84;79.15;99453.47;4995169;28;102879;-70
2022/10/04 00:36:46;;;;;;;6.28;5.68;;;;;;;9.66;80.73;99449.22;4997039;28;103829;-70
2022/10/04 00:39:41;;;;;;;6.03;5.53;;;;;;;9.56;82.16;99441.00;4995095;28;105253;-70
2022/10/04 00:42:37;;;;;;;5.70;5.20;;;;;;;9.52;83.78;99436.84;4977823;28;104281;-70
2022/10/04 00:45:14;;;;;;;6.80;5.75;;;;;;;9.68;81.91;99440.31;4980412;28;103401;-71
2022/10/04 00:48:01;;;;;;;7.13;6.33;;;;;;;9.32;82.90;99445.00;5012893;27;104160;-70
2022/10/04 00:50:36;;;;;;;7.53;6.70;;;;;;;9.00;85.00;99445.94;4997771;28;103742;-70
2022/10/04 00:53:16;;;;;;;8.10;7.35;;;;;;;8.49;88.02;99431.97;4998209;28;103103;-70
2022/10/04 00:55:49;;;;;;;8.88;7.80;;;;;;;8.45;90.11;99434.84;4996580;28;102684;-71
2022/10/04 00:58:25;;;;;;;10.70;8.48;;;;;;;8.08;92.51;99431.41;4998239;28;103017;-70
2022/10/04 01:00:55;;;;;;;11.20;9.05;;;;;;;7.80;95.60;99436.38;4995859;28;103992;-70
2022/10/04 01:03:29;;;;;;;9.13;8.15;;;;;;;7.62;97.27;99436.41;4994396;28;103252;-70
2022/10/04 01:06:01;;;;;;;9.27;7.97;;;;;;;7.74;97.34;99426.16;4997329;28;102569;-71
2022/10/04 01:08:32;;;;;;;7.80;7.10;;;;;;;8.11;97.48;99425.16;4997670;28;104578;-71
2022/10/04 01:11:04;;;;;;;8.70;7.80;;;;;;;7.93;97.78;99426.06;4983021;28;103357;-71
2022/10/04 01:13:38;;;;;;;8.90;7.80;;;;;;;8.00;96.54;99425.69;4996801;28;103248;-69
2022/10/04 01:16:14;;;;;;;8.33;6.97;;;;;;;8.10;94.31;99439.25;4996677;28;103098;-70
2022/10/04 01:18:46;;;;;;;7.05;6.35;;;;;;;8.42;94.33;99440.28;4981271;28;103621;-70
2022/10/04 01:21:27;;;;;;;5.70;5.20;;;;;;;8.87;92.12;99431.72;4997931;28;104048;-70
2022/10/04 01:24:17;;;;;;;5.30;4.80;;;;;;;8.95;90.88;99434.78;5000726;28;103263;-70
2022/10/04 01:26:45;;;;;;;6.77;6.17;;;;;;;8.66;88.89;99429.28;4998741;28;103306;-69
2022/10/04 01:29:17;;;;;;;5.50;4.70;;;;;;;9.04;88.99;99423.75;4998226;28;104778;-69
2022/10/04 01:31:48;;;;;;;8.10;6.20;;;;;;;8.86;86.32;99419.47;4996663;28;103701;-69
2022/10/04 01:34:18;;;;;;;4.70;4.30;;;;;;;9.12;86.67;99417.09;4981430;28;104152;-70
2022/10/04 01:36:47;;;;;;;6.20;5.60;;;;;;;8.65;85.37;99417.03;4999265;28;102603;-70
2022/10/04 01:39:18;;;;;;;6.20;5.50;;;;;;;8.69;85.10;99413.31;4998209;28;104091;-70
2022/10/04 01:41:52;;;;;;;6.35;5.28;;;;;;;8.80;86.11;99409.25;5000810;28;103281;-70
2022/10/04 01:44:28;;;;;;;6.93;5.80;;;;;;;8.05;89.45;99400.00;4997657;28;103179;-70
2022/10/04 01:47:01;;;;;;;5.65;5.05;;;;;;;8.51;89.41;99393.22;4996042;28;103025;-70
2022/10/04 01:49:33;;;;;;;5.85;5.35;;;;;;;8.59;87.89;99391.03;4997654;28;104053;-70
2022/10/04 01:52:06;;;;;;;6.30;5.72;;;;;;;8.37;86.56;99379.94;4995017;28;103406;-70
2022/10/04 01:54:39;;;;;;;7.07;6.00;;;;;;;7.69;90.83;99374.72;4995971;28;103274;-70
2022/10/04 01:57:13;;;;;;;8.95;6.32;;;;;;;7.42;93.19;99384.78;4995112;28;102866;-70
2022/10/04 01:59:45;;;;;;;15.17;6.17;;;;;;;7.55;93.19;99394.63;4996822;28;103790;-70
2022/10/04 02:02:21;;;;;;;5.38;4.88;;;;;;;7.97;93.86;99380.28;4991492;28;104063;-70
2022/10/04 02:04:53;;;;;;;4.50;4.10;;;;;;;8.45;91.51;99383.00;4995164;28;103259;-70
2022/10/04 02:07:22;;;;;;;5.25;4.75;;;;;;;8.48;89.33;99382.84;4994893;28;102725;-70
2022/10/04 02:09:58;;;;;;;6.00;5.47;;;;;;;8.23;89.26;99387.66;4997565;28;104027;-69
2022/10/04 02:12:27;;;;;;;5.88;5.38;;;;;;;8.34;87.95;99390.63;4996333;28;103971;-70
2022/10/04 02:14:57;;;;;;;5.90;5.32;;;;;;;7.99;89.57;99388.94;4995867;28;103265;-70
2022/10/04 02:17:29;;;;;;;6.00;5.50;;;;;;;8.11;89.91;99377.78;4995158;28;102771;-70
2022/10/04 02:20:00;;;;;;;4.03;3.73;;;;;;;8.61;88.92;99377.78;4997358;28;102926;-70
2022/10/04 02:22:28;;;;;;;3.67;3.40;;;;;;;8.82;87.14;99373.13;4992785;28;103943;-70
2022/10/04 02:24:58;;;;;;;4.20;3.85;;;;;;;8.89;85.31;99387.69;4996190;28;103270;-70
2022/10/04 02:27:28;;;;;;;5.78;5.28;;;;;;;8.52;83.78;99373.00;4994511;28;102553;-70
2022/10/04 02:30:00;;;;;;;6.22;4.90;;;;;;;8.39;84.65;99371.97;4996166;28;105875;-69
2022/10/04 02:35:17;;;;;;;4.53;4.13;;;;;;;8.60;85.35;99358.50;4996882;28;103185;-70
2022/10/04 02:37:49;;;;;;;4.22;3.83;;;;;;;8.83;84.59;99373.06;4995409;28;102766;-70
2022/10/04 02:40:22;;;;;;;6.30;5.15;;;;;;;8.26;84.01;99371.72;4998308;28;102643;-70
2022/10/04 02:42:58;;;;;;;5.90;5.40;;;;;;;7.89;88.38;99374.53;4995393;28;103011;-69
2022/10/04 02:45:33;;;;;;;5.20;4.80;;;;;;;8.18;88.84;99372.13;5008902;28;103380;-70
2022/10/04 02:48:04;;;;;;;4.80;4.40;;;;;;;8.43;87.62;99374.34;4976181;28;103141;-70
2022/10/04 02:50:37;;;;;;;5.78;5.28;;;;;;;8.42;84.95;99370.00;4994374;28;103705;-70
2022/10/04 02:53:13;;;;;;;4.30;3.90;;;;;;;8.65;85.64;99359.09;4993736;28;103967;-70
2022/10/04 02:55:43;;;;;;;4.43;4.03;;;;;;;8.73;84.57;99361.31;4995346;28;102981;-70
2022/10/04 02:58:25;;;;;;;5.60;4.30;;;;;;;8.77;84.12;99362.84;4995936;28;104733;-70
2022/10/04 03:00:57;;;;;;;5.20;4.70;;;;;;;8.67;82.08;99365.13;4995313;28;104476;-70
2022/10/04 03:03:29;;;;;;;7.10;6.40;;;;;;;7.71;87.39;99364.94;4996161;28;103994;-70
2022/10/04 03:06:02;;;;;;;6.67;5.97;;;;;;;7.59;89.67;99355.88;4999184;28;103340;-70
2022/10/04 03:08:34;;;;;;;7.57;6.25;;;;;;;7.34;91.71;99363.28;4992932;28;103736;-70
2022/10/04 03:11:05;;;;;;;5.60;5.10;;;;;;;7.54;90.65;99356.13;4994021;28;104014;-70
2022/10/04 03:13:36;;;;;;;4.85;4.35;;;;;;;7.62;91.86;99353.09;4974440;28;103047;-70
2022/10/04 03:16:04;;;;;;;5.03;4.50;;;;;;;7.48;93.72;99351.16;4991974;28;103612;-70
2022/10/04 03:18:34;;;;;;;4.00;3.70;;;;;;;8.02;91.37;99341.41;4977251;28;102695;-70
2022/10/04 03:21:06;;;;;;;4.18;3.88;;;;;;;8.27;89.64;99343.59;4976865;28;102982;-71
2022/10/04 03:23:35;;;;;;;5.30;4.88;;;;;;;7.56;89.72;99342.91;4994483;28;103307;-70
2022/10/04 03:26:19;;;;;;;4.82;4.43;;;;;;;7.56;91.61;99342.91;4996657;28;103261;-70
2022/10/04 03:28:52;;;;;;;4.70;4.20;;;;;;;7.89;89.86;99340.31;4975067;28;102791;-70
2022/10/04 03:31:21;;;;;;;5.57;4.95;;;;;;;7.94;89.29;99338.34;4998125;28;103633;-70
2022/10/04 03:33:49;;;;;;;3.67;3.38;;;;;;;8.32;88.74;99339.84;4998129;28;104203;-71
2022/10/04 03:36:18;;;;;;;5.22;4.80;;;;;;;7.97;87.04;99341.63;5000310;28;103228;-71
2022/10/04 03:38:49;;;;;;;5.40;4.90;;;;;;;7.81;88.83;99342.50;4979032;28;102734;-70
2022/10/04 03:41:18;;;;;;;4.40;4.10;;;;;;;7.91;90.73;99341.13;4998233;28;103841;-70
2022/10/04 03:43:49;;;;;;;4.78;4.38;;;;;;;7.94;88.79;99348.84;4996478;28;104028;-71
2022/10/04 03:46:21;;;;;;;5.63;5.13;;;;;;;7.79;90.60;99344.38;4997009;28;103238;-71
2022/10/04 03:48:52;;;;;;;4.67;4.27;;;;;;;8.29;89.94;99339.13;4996630;28;103966;-71
2022/10/04 03:51:23;;;;;;;3.45;3.15;;;;;;;8.51;88.32;99340.53;5001848;28;104028;-71
2022/10/04 03:53:54;;;;;;;4.15;3.75;;;;;;;8.57;86.75;99334.09;4981358;28;104390;-71
2022/10/04 03:56:26;;;;;;;6.00;5.10;;;;;;;7.58;88.20;99334.00;4999743;28;103312;-71
2022/10/04 03:58:55;;;;;;;6.25;5.65;;;;;;;7.37;89.88;99335.06;5000393;28;104233;-70
2022/10/04 04:01:37;;;;;;;9.05;6.35;;;;;;;6.89;94.61;99345.31;5000889;28;103961;-71
2022/10/04 04:04:15;;;;;;;6.37;5.77;;;;;;;7.38;94.48;99349.06;4996212;28;103204;-71
2022/10/04 04:06:51;;;;;;;8.25;6.45;;;;;;;7.17;95.03;99340.44;4979265;28;103298;-71
2022/10/04 04:09:24;;;;;;;7.47;6.53;;;;;;;7.39;93.94;99333.22;4996338;28;102770;-71
2022/10/04 04:11:57;;;;;;;8.80;7.43;;;;;;;7.07;95.87;99328.69;5001615;28;103526;-70
2022/10/04 04:14:27;;;;;;;7.53;6.72;;;;;;;7.09;97.08;99337.34;4996995;28;103287;-70
2022/10/04 04:17:39;;;;;;;8.43;7.30;;;;;;;6.96;98.30;99341.50;4997456;28;103276;-70
2022/10/04 04:20:18;;;;;;;8.25;7.43;;;;;;;6.92;98.92;99332.91;4978201;28;104190;-71
2022/10/04 04:23:00;;;;;;;8.45;7.35;;;;;;;7.13;98.60;99332.81;5001506;28;103646;-71
2022/10/04 04:25:31;;;;;;;8.67;7.80;;;;;;;7.26;97.23;99323.38;5004082;28;104086;-71
2022/10/04 04:28:13;;;;;;;6.53;5.93;;;;;;;7.88;96.79;99318.44;4998878;28;103294;-70
2022/10/04 04:30:46;;;;;;;5.00;4.60;;;;;;;8.24;94.19;99320.94;4996754;28;107439;-71
2022/10/04 04:33:23;;;;;;;5.65;5.18;;;;;;;8.40;92.50;99331.50;4998789;28;104303;-71
2022/10/04 04:35:55;;;;;;;7.32;6.63;;;;;;;8.38;90.31;99323.72;4997868;28;103261;-71
2022/10/04 04:38:25;;;;;;;8.30;7.10;;;;;;;7.85;91.59;99331.75;4980544;28;103378;-71
2022/10/04 04:40:54;;;;;;;7.20;6.50;;;;;;;7.99;93.13;99325.78;4997634;28;102634;-71
2022/10/04 04:43:26;;;;;;;6.50;5.90;;;;;;;8.34;91.92;99324.78;4999070;28;103611;-71
2022/10/04 04:45:57;;;;;;;8.50;6.95;;;;;;;7.65;91.37;99331.91;4996543;28;103813;-71
2022/10/04 04:48:48;;;;;;;9.45;7.30;;;;;;;7.47;93.81;99323.16;4987961;28;103261;-71
2022/10/04 04:51:21;;;;;;;9.77;8.00;;;;;;;7.42;94.60;99324.31;4994570;28;102622;-71
2022/10/04 04:53:50;;;;;;;12.38;8.23;;;;;;;7.46;96.40;99332.00;4996717;28;102648;-71
2022/10/04 04:56:22;;;;;;;10.45;8.07;;;;;;;7.61;94.38;99340.06;4995534;28;103583;-71
2022/10/04 04:58:53;;;;;;;7.60;6.67;;;;;;;8.04;93.36;99342.19;4997886;28;103287;-71
2022/10/04 05:01:24;;;;;;;9.30;7.95;;;;;;;7.57;93.05;99342.84;4996010;28;102596;-70
2022/10/04 05:04:04;;;;;;;9.50;8.50;;;;;;;7.38;95.44;99355.16;4982105;28;103780;-70
2022/10/04 05:06:33;;;;;;;7.90;7.10;;;;;;;7.96;93.96;99352.25;4978972;28;104095;-69
2022/10/04 05:09:01;;;;;;;8.23;7.37;;;;;;;8.24;91.90;99357.78;5001066;28;103481;-70
2022/10/04 05:11:32;;;;;;;7.17;5.83;;;;;;;8.44;90.79;99365.53;4981622;28;102623;-70
2022/10/04 05:14:06;;;;;;;5.93;5.32;;;;;;;8.54;90.20;99366.72;5000654;28;102955;-70
2022/10/04 05:16:40;;;;;;;7.17;6.47;;;;;;;8.57;89.64;99368.34;4998190;28;103378;-70
2022/10/04 05:19:14;;;;;;;9.20;7.72;;;;;;;8.09;89.97;99374.38;4998251;28;103718;-69
2022/10/04 05:21:45;;;;;;;7.78;7.07;;;;;;;8.00;91.93;99365.16;4996218;28;102615;-70
2022/10/04 05:24:19;;;;;;;6.43;5.82;;;;;;;8.34;90.20;99364.28;4996836;28;104052;-70
2022/10/04 05:26:50;;;;;;;11.73;8.30;;;;;;;8.21;90.15;99362.34;4978386;28;104223;-66
2022/10/04 05:29:22;;;;;;;6.40;5.80;;;;;;;8.57;89.62;99369.19;4944233;28;103682;-66
2022/10/04 05:32:02;;;;;;;11.57;7.53;;;;;;;8.49;89.17;99368.75;4991459;28;103060;-66
2022/10/04 05:34:36;;;;;;;8.00;6.80;;;;;;;8.61;88.80;99372.53;4993524;28;103905;-66
2022/10/04 05:37:21;;;;;;;7.28;5.85;;;;;;;8.79;88.40;99368.88;4993189;28;104051;-66
2022/10/04 05:40:00;;;;;;;7.80;6.20;;;;;;;8.96;87.79;99368.81;4993311;28;103248;-66
2022/10/04 05:42:37;;;;;;;7.03;6.35;;;;;;;9.15;86.87;99353.66;4991322;28;102940;-66
2022/10/04 05:45:17;;;;;;;4.90;4.50;;;;;;;9.25;86.42;99360.13;4982486;28;104289;-66
2022/10/04 05:47:47;;;;;;;5.90;5.07;;;;;;;9.31;85.90;99353.66;4989461;28;104411;-66
2022/10/04 05:50:19;;;;;;;6.13;5.55;;;;;;;9.16;85.88;99349.25;5000949;28;103202;-67
2022/10/04 05:52:50;;;;;;;7.07;6.37;;;;;;;8.51;88.43;99358.97;4993989;28;102903;-66
2022/10/04 05:55:26;;;;;;;8.23;7.10;;;;;;;7.88;92.62;99362.31;5014495;27;104150;-66
2022/10/04 05:58:09;;;;;;;5.25;4.75;;;;;;;8.78;91.93;99363.69;4980214;28;104323;-66
2022/10/04 06:00:45;;;;;;;7.05;6.30;;;;;;;9.02;90.10;99351.78;4997071;28;103293;-66
2022/10/04 06:03:48;;;;;;;6.47;5.80;;;;;;;9.06;88.68;99359.47;4998195;28;103819;-66
2022/10/04 06:06:22;;;;;;;4.97;4.50;;;;;;;9.37;87.34;99358.59;4975178;28;104083;-66
2022/10/04 06:09:04;;;;;;;5.82;5.15;;;;;;;9.37;85.93;99355.97;4998859;28;103946;-66
2022/10/04 06:11:42;;;;;;;6.85;6.03;;;;;;;9.19;86.75;99354.34;4999425;28;103223;-66
2022/10/04 06:14:36;;;;;;;8.23;6.25;;;;;;;9.33;87.56;99346.50;4996384;28;102743;-66
2022/10/04 06:17:24;;;;;;;8.20;5.93;;;;;;;9.47;86.46;99343.94;5006452;27;103784;-66
2022/10/04 06:20:08;;;;;;;5.50;5.00;;;;;;;9.72;86.49;99349.47;4997962;28;103639;-66
2022/10/04 06:22:43;;;;;;;6.60;5.38;;;;;;;9.88;85.90;99342.34;4997864;28;103233;-66
2022/10/04 06:25:16;;;;;;;6.43;5.57;;;;;;;9.93;85.14;99344.72;4996106;28;102789;-66
2022/10/04 06:27:52;;;;;;;5.80;5.30;;;;;;;9.94;85.35;99348.22;4997930;28;103968;-66
2022/10/04 06:30:32;;;;;;;7.30;6.60;;;;;;;9.93;84.94;99351.78;4996716;28;104105;-67
2022/10/04 06:33:20;;;;;;;7.32;6.28;;;;;;;9.65;88.56;99353.44;4997389;28;103310;-67
2022/10/04 06:36:08;;;;;;;5.47;4.90;;;;;;;10.06;87.15;99358.03;4980855;28;103075;-66
2022/10/04 06:39:02;;;;;;;8.23;6.63;;;;;;;10.23;85.80;99360.53;4996113;28;102925;-66
2022/10/04 06:42:05;;;;;;;6.97;6.30;;;;;;;10.26;85.74;99360.38;4975996;28;103589;-66
2022/10/04 06:44:43;;;;;;;7.43;6.60;;;;;;;10.31;84.62;99358.28;4996268;28;103253;-66
2022/10/04 06:47:36;;;;;;;8.43;6.90;;;;;;;10.23;85.70;99348.19;4995494;28;102771;-66
2022/10/04 06:50:22;;;;;;;8.90;7.07;;;;;;;10.28;85.82;99358.47;4996993;28;103598;-66
2022/10/04 06:53:07;;;;;;;9.88;7.10;;;;;;;10.19;85.53;99349.31;4997494;28;105195;-66
2022/10/04 06:56:01;;;;;;;8.63;7.57;;;;;;;10.30;86.44;99361.91;4997592;28;103187;-66
2022/10/04 06:58:45;;;;;;;9.73;7.22;;;;;;;10.61;85.29;99364.31;4995889;28;103041;-66
2022/10/04 07:01:24;;;;;;;6.95;6.25;;;;;;;10.82;85.30;99365.66;4995385;28;102765;-66
2022/10/04 07:04:00;;;;;;;8.95;8.05;;;;;;;10.22;85.82;99357.06;4986034;28;103288;-66
2022/10/04 07:06:37;;;;;;;8.65;7.40;;;;;;;10.67;86.41;99366.59;4999699;28;103251;-66
2022/10/04 07:09:07;;;;;;;7.25;6.55;;;;;;;10.87;85.01;99366.19;4996787;28;102960;-65
2022/10/04 07:11:45;;;;;;;8.57;6.93;;;;;;;11.01;84.01;99360.88;5003605;28;103748;-66
2022/10/04 07:14:18;;;;;;;7.90;6.80;;;;;;;11.14;84.22;99362.75;4998535;28;103620;-66
2022/10/04 07:16:49;;;;;;;8.03;7.23;;;;;;;11.09;84.40;99360.38;5000181;28;103296;-66
2022/10/04 07:19:30;;;;;;;9.35;8.18;;;;;;;10.92;85.16;99366.75;5001132;28;102996;-66
2022/10/04 07:22:11;;;;;;;10.35;8.20;;;;;;;10.93;85.18;99362.31;5002960;28;103969;-67
2022/10/04 07:24:49;;;;;;;8.05;7.25;;;;;;;11.19;84.48;99363.31;5000172;28;104006;-65
2022/10/04 07:27:20;;;;;;;8.90;7.30;;;;;;;11.15;83.77;99373.22;4984974;28;104202;-66
2022/10/04 07:29:53;;;;;;;9.95;7.47;;;;;;;10.86;83.39;99377.69;5000603;28;102753;-66
2022/10/04 07:32:23;;;;;;;10.15;8.35;;;;;;;10.77;86.03;99386.22;5003434;28;102628;-66
2022/10/04 07:34:57;;;;;;;10.10;8.93;;;;;;;10.23;87.93;99386.97;4980413;28;103431;-67
2022/10/04 07:37:33;;;;;;;10.52;9.43;;;;;;;10.01;90.50;99397.06;5000870;28;102663;-68
2022/10/04 07:40:07;;;;;;;10.43;8.75;;;;;;;10.29;91.21;99400.66;4999629;28;102784;-67
2022/10/04 07:42:46;;;;;;;10.10;8.40;;;;;;;10.08;92.12;99395.75;4984717;28;102806;-65
2022/10/04 07:45:19;;;;;;;7.93;7.13;;;;;;;11.02;90.24;99404.06;4981495;28;104959;-68
2022/10/04 07:47:49;;;;;;;7.70;7.00;;;;;;;11.44;86.72;99401.31;5000452;28;102979;-66
2022/10/04 07:50:23;;;;;;;7.53;6.82;;;;;;;11.85;84.95;99408.34;4998927;28;104777;-65
2022/10/04 07:52:56;;;;;;;7.00;6.30;;;;;;;11.76;84.29;99396.56;4998274;28;104443;-66
2022/10/04 07:55:31;;;;;;;7.28;6.57;;;;;;;11.82;83.54;99400.59;5000717;28;103349;-65
2022/10/04 07:58:11;;;;;;;7.65;6.85;;;;;;;11.83;83.69;99394.38;4997977;28;104266;-65
2022/10/04 08:00:48;;;;;;;7.28;6.57;;;;;;;11.92;84.11;99393.78;4996755;28;102614;-66
2022/10/04 08:03:45;;;;;;;7.05;6.45;;;;;;;12.25;82.88;99386.19;4999449;28;102574;-66
2022/10/04 08:06:17;;;;;;;9.35;6.80;;;;;;;12.37;81.53;99392.47;4999915;28;103084;-66
2022/10/04 08:09:08;;;;;;;9.02;7.45;;;;;;;12.23;82.48;99395.19;4999492;28;103248;-66
2022/10/04 08:11:44;;;;;;;8.68;7.28;;;;;;;11.99;84.30;99401.19;4999911;28;102718;-66
2022/10/04 08:14:26;;;;;;;8.93;7.00;;;;;;;12.16;83.29;99395.59;5000853;28;103867;-66
2022/10/04 08:17:17;;;;;;;8.00;6.28;;;;;;;12.46;82.66;99386.53;4999182;28;103681;-66
2022/10/04 08:19:57;;;;;;;6.40;5.80;;;;;;;12.52;82.44;99375.50;4996658;28;103620;-67
2022/10/04 08:22:40;;;;;;;6.93;6.23;;;;;;;12.05;83.30;99363.72;4998517;28;103116;-66
2022/10/04 08:25:20;;;;;;;7.65;6.63;;;;;;;12.31;83.52;99369.03;5001399;28;102697;-66
2022/10/04 08:31:01;;;;;;;8.43;6.18;;;;;;;12.68;82.60;99373.47;4998007;28;103204;-66
2022/10/04 08:33:47;;;;;;;8.80;6.50;;;;;;;12.62;82.51;99376.53;4999306;28;102622;-65
2022/10/04 08:36:27;;;;;;;7.03;6.30;;;;;;;13.39;81.32;99364.84;4999863;28;102679;-66
2022/10/04 08:38:57;;;;;;;8.07;6.30;;;;;;;13.61;78.40;99357.84;4998747;28;103334;-66
2022/10/04 08:42:05;;;;;;;6.90;6.20;;;;;;;14.06;77.21;99361.50;4998081;28;103383;-66
2022/10/04 08:45:10;;;;;;;6.97;6.28;;;;;;;13.68;77.85;99371.47;4977792;28;102725;-66
2022/10/04 08:48:31;;;;;;;6.63;5.57;;;;;;;13.82;75.60;99371.31;4979709;28;103905;-66
2022/10/04 08:51:35;;;;;;;8.88;5.85;;;;;;;14.00;75.07;99369.94;4978034;28;104375;-66
2022/10/04 08:54:44;;;;;;;6.75;6.05;;;;;;;14.11;75.42;99385.91;4995606;28;103238;-66
2022/10/04 08:57:46;;;;;;;7.50;6.53;;;;;;;14.45;76.08;99386.84;4966145;28;102836;-66
2022/10/04 09:00:20;;;;;;;9.10;6.40;;;;;;;14.79;72.23;99385.91;4992870;28;104369;-66
2022/10/04 09:03:12;;;;;;;7.28;5.68;;;;;;;15.10;72.47;99379.84;4997329;28;103384;-66
2022/10/04 09:05:57;;;;;;;9.17;6.20;;;;;;;14.90;72.15;99390.41;4993695;28;103506;-66
2022/10/04 09:09:15;;;;;;;8.20;5.27;;;;;;;15.54;69.91;99378.09;4980438;28;102757;-66
2022/10/04 09:11:57;;;;;;;11.45;5.85;;;;;;;15.32;70.47;99384.31;4919480;28;103711;-66
2022/10/04 09:14:48;;;;;;;5.73;5.00;;;;;;;15.71;70.02;99372.22;4989045;28;103562;-66
2022/10/04 09:17:22;;;;;;;7.22;5.07;;;;;;;16.19;67.95;99384.13;4998514;28;103042;-67
2022/10/04 09:19:56;;;;;;;7.13;4.93;;;;;;;16.37;66.69;99376.38;4997020;28;103031;-66
2022/10/04 09:22:48;;;;;;;6.87;5.40;;;;;;;16.23;67.76;99371.38;4994630;28;102889;-67
2022/10/04 09:25:39;;;;;;;8.05;4.70;;;;;;;16.15;66.59;99363.16;4996339;28;105234;-67
2022/10/04 09:28:37;;;;;;;8.07;5.30;;;;;;;16.39;66.73;99358.44;4996378;28;103518;-67
2022/10/04 09:31:29;;;;;;;9.00;4.82;;;;;;;16.22;67.48;99361.69;4962160;28;102969;-68
2022/10/04 09:34:21;;;;;;;8.07;4.82;;;;;;;16.50;65.56;99353.03;4996957;28;104191;-68
2022/10/04 09:37:07;;;;;;;6.20;4.93;;;;;;;16.80;65.48;99350.38;4998734;28;103400;-68
2022/10/04 09:39:46;;;;;;;8.88;5.70;;;;;;;16.61;65.62;99350.31;4997998;28;103347;-68
2022/10/04 09:42:48;;;;;;;10.20;5.38;;;;;;;16.46;65.63;99348.91;5000531;28;103636;-68
2022/10/04 09:45:51;;;;;;;7.37;4.77;;;;;;;17.09;62.75;99344.31;4999527;28;103100;-68
2022/10/04 09:48:35;;;;;;;7.28;4.72;;;;;;;17.45;64.38;99335.66;4996569;28;103729;-68
2022/10/04 09:51:39;;;;;;;9.25;4.65;;;;;;;17.19;63.12;99334.47;4997891;28;103229;-68
2022/10/04 09:54:21;;;;;;;5.50;4.15;;;;;;;17.31;62.61;99344.06;4982527;28;102767;-68
2022/10/04 09:57:29;;;;;;;6.68;4.20;;;;;;;17.29;62.97;99340.69;4998621;28;104237;-68
2022/10/04 10:00:12;;;;;;;5.53;3.50;;;;;;;17.26;62.53;99336.44;4997031;28;103608;-68
2022/10/04 10:03:17;;;;;;;7.40;4.00;;;;;;;17.05;63.02;99338.38;4995694;28;103002;-68
2022/10/04 10:06:09;;;;;;;5.85;4.00;;;;;;;17.55;63.33;99335.69;4976348;28;102716;-68
2022/10/04 10:08:54;;;;;;;5.88;4.15;;;;;;;17.66;61.72;99331.06;4994946;28;103280;-67
2022/10/04 10:14:38;;;;;;;7.43;4.30;;;;;;;17.42;62.81;99335.94;4996071;28;103357;-69
2022/10/04 10:17:19;;;;;;;4.88;3.15;;;;;;;17.86;60.37;99337.25;4997877;28;102689;-69
2022/10/04 10:20:15;;;;;;;6.65;3.75;;;;;;;17.63;62.50;99346.50;4998128;28;102663;-69
2022/10/04 10:23:17;;;;;;;4.90;3.67;;;;;;;18.12;61.01;99334.84;4998540;28;103555;-69
2022/10/04 10:26:07;;;;;;;6.43;3.47;;;;;;;18.38;59.43;99341.25;4995865;28;104233;-68
2022/10/04 10:29:01;;;;;;;5.43;4.00;;;;;;;18.26;58.99;99331.72;4998842;28;102893;-69
2022/10/04 10:31:53;;;;;;;5.97;3.00;;;;;;;17.80;59.01;99330.63;4997957;28;102837;-69
2022/10/04 10:34:58;;;;;;;4.60;3.17;;;;;;;18.12;60.89;99330.34;4990812;28;103604;-67
2022/10/04 10:37:40;;;;;;;7.83;3.30;;;;;;;18.34;59.31;99329.16;4925581;28;103393;-68
2022/10/04 10:40:43;;;;;;;4.72;2.90;;;;;;;18.68;57.64;99326.81;4993142;28;102779;-68
2022/10/04 10:43:36;;;;;;;5.87;3.10;;;;;;;18.58;59.16;99326.03;4993936;28;102980;-68
2022/10/04 10:46:22;;;;;;;4.53;2.80;;;;;;;18.62;57.92;99328.25;4973437;28;104396;-68
2022/10/04 10:49:34;;;;;;;3.93;2.97;;;;;;;18.71;59.10;99327.38;4985873;28;107422;-68
2022/10/04 10:52:27;;;;;;;4.90;2.70;;;;;;;19.08;57.05;99320.16;4983917;27;102967;-65
2022/10/04 10:55:28;;;;;;;4.20;2.35;;;;;;;18.74;58.22;99324.41;5011475;27;103579;-66
2022/10/04 10:58:25;;;;;;;8.83;3.10;;;;;;;18.40;58.04;99323.22;5013054;28;104060;-67
2022/10/04 11:01:05;;;;;;;5.63;2.67;;;;;;;18.50;59.04;99324.06;5015325;27;103310;-66
2022/10/04 11:04:02;;;;;;;4.78;2.30;;;;;;;19.34;55.96;99317.59;5017142;27;103072;-66
2022/10/04 11:07:03;;;;;;;6.30;3.10;;;;;;;19.04;56.78;99324.13;5010186;27;103132;-66
2022/10/04 11:09:40;;;;;;;3.53;2.60;;;;;;;19.71;55.26;99316.63;5018317;27;103662;-67
2022/10/04 11:12:47;;;;;;;4.70;2.30;;;;;;;19.80;55.01;99319.25;5009841;28;104185;-67
2022/10/04 11:16:05;;;;;;;5.17;2.90;;;;;;;19.97;54.27;99309.50;4928449;28;102994;-67
2022/10/04 11:19:22;;;;;;;4.43;2.58;;;;;;;19.18;54.71;99311.22;4983219;27;104098;-67
2022/10/04 11:22:43;;;;;;;6.32;2.90;;;;;;;19.11;55.63;99309.13;4964170;28;104153;-67
2022/10/04 11:25:34;;;;;;;4.40;2.15;;;;;;;20.23;54.53;99305.88;4967068;27;103894;-67
2022/10/04 11:28:11;;;;;;;4.32;2.45;;;;;;;19.80;55.71;99296.94;5019139;27;102645;-68
2022/10/04 11:31:13;;;;;;;5.97;2.58;;;;;;;19.72;55.24;99291.53;4992420;28;102737;-68
2022/10/04 11:34:02;;;;;;;3.90;2.50;;;;;;;20.20;53.91;99292.75;5009314;27;103474;-68
2022/10/04 11:36:53;;;;;;;3.70;2.60;;;;;;;20.16;53.75;99287.84;4992697;28;103192;-68
2022/10/04 11:39:47;;;;;;;3.72;2.25;;;;;;;20.77;53.01;99285.06;5009132;27;102687;-68
2022/10/04 11:42:28;;;;;;;4.40;2.65;;;;;;;20.29;53.92;99284.78;4991699;28;103731;-68
2022/10/04 11:45:26;;;;;;;4.03;2.70;;;;;;;20.43;53.88;99265.44;5018821;27;103333;-68
2022/10/04 11:48:10;;;;;;;2.77;2.30;;;;;;;21.25;52.82;99258.38;4993943;28;104432;-68
2022/10/04 11:51:01;;;;;;;5.15;2.50;;;;;;;21.11;53.19;99256.31;5032706;27;103061;-69
2022/10/04 11:53:55;;;;;;;6.18;2.75;;;;;;;20.94;52.52;99254.56;5004512;27;102743;-68
2022/10/04 11:56:40;;;;;;;3.67;2.57;;;;;;;21.20;51.97;99249.13;5017541;27;104061;-68
2022/10/04 11:59:23;;;;;;;4.00;2.72;;;;;;;21.39;51.06;99249.66;5011843;28;103201;-68
2022/10/04 12:02:27;;;;;;;6.63;3.08;;;;;;;21.60;51.91;99251.03;5009525;28;102695;-68
2022/10/04 12:05:23;;;;;;;5.13;2.73;;;;;;;20.81;51.71;99248.81;5015481;27;102887;-68
2022/10/04 12:08:11;;;;;;;3.50;2.47;;;;;;;21.83;51.69;99233.22;5011518;28;103429;-68
2022/10/04 12:10:45;;;;;;;4.77;2.87;;;;;;;21.41;52.50;99241.44;5013004;27;103187;-69
2022/10/04 12:13:39;;;;;;;5.00;2.80;;;;;;;21.76;51.23;99232.19;5012711;27;102851;-68
2022/10/04 12:16:35;;;;;;;4.28;2.53;;;;;;;21.61;51.50;99233.91;4997457;28;104085;-67
2022/10/04 12:19:33;;;;;;;5.65;3.40;;;;;;;21.20;53.02;99230.31;5005874;28;103661;-68
2022/10/04 12:22:21;;;;;;;5.03;2.92;;;;;;;21.65;51.94;99229.84;5012701;27;103243;-68
2022/10/04 12:25:12;;;;;;;4.72;3.03;;;;;;;21.33;51.86;99234.19;5008383;27;103061;-68
2022/10/04 12:28:11;;;;;;;3.08;2.47;;;;;;;21.92;51.67;99230.38;4996362;28;102891;-68
2022/10/04 12:30:54;;;;;;;3.50;2.25;;;;;;;22.34;51.03;99227.41;4991079;28;103243;-69
2022/10/04 12:33:30;;;;;;;3.97;2.80;;;;;;;22.58;50.65;99226.50;5006141;27;102963;-68
2022/10/04 12:36:12;;;;;;;5.30;2.60;;;;;;;22.99;50.25;99214.53;5017420;27;102807;-69
2022/10/04 12:39:02;;;;;;;4.85;2.72;;;;;;;22.85;49.78;99211.78;5004448;28;102678;-69
2022/10/04 12:41:45;;;;;;;4.10;2.57;;;;;;;22.75;50.00;99216.53;5013133;27;103821;-70
2022/10/04 12:44:28;;;;;;;3.47;2.67;;;;;;;22.22;49.57;99212.66;5012658;27;103299;-68